createdAt,value
2022-11-03T00:00:16.172Z,10.78
2022-11-03T00:01:16.219Z,10.78
2022-11-03T00:02:16.205Z,10.78
2022-11-03T00:03:16.101Z,10.76
2022-11-03T00:04:16.094Z,10.74
2022-11-03T00:05:16.083Z,10.73
2022-11-03T00:06:16.091Z,10.73
2022-11-03T00:07:16.060Z,10.76
2022-11-03T00:08:16.071Z,10.78
2022-11-03T00:09:16.046Z,10.80
2022-11-03T00:10:16.039Z,10.83
2022-11-03T00:11:16.049Z,10.84
2022-11-03T00:12:16.037Z,10.84
2022-11-03T00:13:15.990Z,10.84
2022-11-03T00:14:15.992Z,10.86
2022-11-03T00:15:15.973Z,10.88
2022-11-03T00:16:15.993Z,10.88
2022-11-03T00:17:15.952Z,10.89
2022-11-03T00:18:15.932Z,10.89
2022-11-03T00:19:15.974Z,10.89
2022-11-03T00:20:15.914Z,10.89
2022-11-03T00:21:15.906Z,10.92
2022-11-03T00:22:15.892Z,10.94
2022-11-03T00:23:15.883Z,10.95
2022-11-03T00:24:15.882Z,10.96
2022-11-03T00:25:15.891Z,10.96
2022-11-03T00:26:15.863Z,10.98
2022-11-03T00:27:15.834Z,10.98
2022-11-03T00:28:15.835Z,10.99
2022-11-03T00:29:15.845Z,10.98
2022-11-03T00:30:15.804Z,10.99
2022-11-03T00:31:15.803Z,11.01
2022-11-03T00:32:15.805Z,11.02
2022-11-03T00:33:15.771Z,11.02
2022-11-03T00:34:15.762Z,10.98
2022-11-03T00:35:15.753Z,10.98
2022-11-03T00:36:15.743Z,10.95
2022-11-03T00:37:15.725Z,10.98
2022-11-03T00:38:15.744Z,10.96
2022-11-03T00:39:15.704Z,10.94
2022-11-03T00:40:15.696Z,10.91
2022-11-03T00:41:15.683Z,10.89
2022-11-03T00:42:15.694Z,10.91
2022-11-03T00:43:15.675Z,10.92
2022-11-03T00:44:15.646Z,10.95
2022-11-03T00:45:15.634Z,10.94
2022-11-03T00:46:15.626Z,10.91
2022-11-03T00:47:18.940Z,10.92
2022-11-03T00:48:16.625Z,10.91
2022-11-03T00:49:15.586Z,10.88
2022-11-03T00:50:15.594Z,10.83
2022-11-03T00:51:15.576Z,10.83
2022-11-03T00:52:15.556Z,10.80
2022-11-03T00:53:15.574Z,10.76
2022-11-03T00:54:15.537Z,10.77
2022-11-03T00:55:15.524Z,10.78
2022-11-03T00:56:15.534Z,10.80
2022-11-03T00:57:15.507Z,10.81
2022-11-03T00:58:15.516Z,10.81
2022-11-03T00:59:15.477Z,10.83
2022-11-03T01:00:15.476Z,10.81
2022-11-03T01:01:15.618Z,10.80
2022-11-03T01:02:15.540Z,10.77
2022-11-03T01:03:15.460Z,10.77
2022-11-03T01:04:15.461Z,10.74
2022-11-03T01:05:15.437Z,10.73
2022-11-03T01:06:15.397Z,10.74
2022-11-03T01:07:15.395Z,10.71
2022-11-03T01:08:15.400Z,10.71
2022-11-03T01:09:15.365Z,10.70
2022-11-03T01:10:15.378Z,10.70
2022-11-03T01:11:15.349Z,10.68
2022-11-03T01:12:15.340Z,10.66
2022-11-03T01:13:15.326Z,10.68
2022-11-03T01:14:15.316Z,10.68
2022-11-03T01:15:15.331Z,10.65
2022-11-03T01:16:15.309Z,10.62
2022-11-03T01:17:15.278Z,10.60
2022-11-03T01:18:15.280Z,10.59
2022-11-03T01:19:15.265Z,10.59
2022-11-03T01:20:15.274Z,10.60
2022-11-03T01:21:15.267Z,10.60
2022-11-03T01:22:15.230Z,10.59
2022-11-03T01:23:15.217Z,10.60
2022-11-03T01:24:15.199Z,10.60
2022-11-03T01:25:15.196Z,10.63
2022-11-03T01:26:15.177Z,10.62
2022-11-03T01:27:15.193Z,10.63
2022-11-03T01:28:15.178Z,10.62
2022-11-03T01:29:15.148Z,10.59
2022-11-03T01:30:15.139Z,10.59
2022-11-03T01:31:15.127Z,10.58
2022-11-03T01:32:15.151Z,10.58
2022-11-03T01:33:15.100Z,10.56
2022-11-03T01:34:15.089Z,10.56
2022-11-03T01:35:15.078Z,10.53
2022-11-03T01:36:15.068Z,10.51
2022-11-03T01:37:15.058Z,10.51
2022-11-03T01:38:15.073Z,10.47
2022-11-03T01:39:15.038Z,10.47
2022-11-03T01:40:15.021Z,10.46
2022-11-03T01:41:15.018Z,10.52
2022-11-03T01:42:15.020Z,10.51
2022-11-03T01:43:14.997Z,10.51
2022-11-03T01:44:14.981Z,10.46
2022-11-03T01:45:14.990Z,10.44
2022-11-03T01:46:14.952Z,10.44
2022-11-03T01:47:14.940Z,10.46
2022-11-03T01:48:14.933Z,10.46
2022-11-03T01:49:14.933Z,10.46
2022-11-03T01:50:14.930Z,10.44
2022-11-03T01:51:14.908Z,10.44
2022-11-03T01:52:14.892Z,10.43
2022-11-03T01:53:14.881Z,10.44
2022-11-03T01:54:14.870Z,10.46
2022-11-03T01:55:14.901Z,10.47
2022-11-03T01:56:14.851Z,10.51
2022-11-03T01:57:14.838Z,10.51
2022-11-03T01:58:14.844Z,10.52
2022-11-03T01:59:14.811Z,10.52
2022-11-03T02:00:14.820Z,10.52
2022-11-03T02:01:14.895Z,10.53
2022-11-03T02:02:14.833Z,10.56
2022-11-03T02:03:14.774Z,10.56
2022-11-03T02:04:14.754Z,10.53
2022-11-03T02:05:14.774Z,10.55
2022-11-03T02:06:14.752Z,10.55
2022-11-03T02:07:14.731Z,10.55
2022-11-03T02:08:14.704Z,10.56
2022-11-03T02:09:14.700Z,10.58
2022-11-03T02:10:14.713Z,10.56
2022-11-03T02:11:14.673Z,10.55
2022-11-03T02:12:14.672Z,10.55
2022-11-03T02:13:14.662Z,10.55
2022-11-03T02:14:14.633Z,10.56
2022-11-03T02:15:14.633Z,10.55
2022-11-03T02:16:14.643Z,10.53
2022-11-03T02:17:14.603Z,10.55
2022-11-03T02:18:14.602Z,10.55
2022-11-03T02:19:14.584Z,10.53
2022-11-03T02:20:14.579Z,10.51
2022-11-03T02:21:14.586Z,10.53
2022-11-03T02:22:14.554Z,10.52
2022-11-03T02:23:14.542Z,10.52
2022-11-03T02:24:14.531Z,10.51
2022-11-03T02:25:14.524Z,10.52
2022-11-03T02:26:14.542Z,10.53
2022-11-03T02:27:14.510Z,10.52
2022-11-03T02:28:14.482Z,10.53
2022-11-03T02:29:14.482Z,10.52
2022-11-03T02:30:14.465Z,10.52
2022-11-03T02:31:14.492Z,10.51
2022-11-03T02:32:14.444Z,10.47
2022-11-03T02:33:14.433Z,10.47
2022-11-03T02:34:14.417Z,10.46
2022-11-03T02:35:14.417Z,10.47
2022-11-03T02:36:14.386Z,10.52
2022-11-03T02:37:14.415Z,10.53
2022-11-03T02:38:14.374Z,10.55
2022-11-03T02:39:14.361Z,10.55
2022-11-03T02:40:14.343Z,10.52
2022-11-03T02:41:14.355Z,10.52
2022-11-03T02:42:14.325Z,10.47
2022-11-03T02:43:14.316Z,10.51
2022-11-03T02:44:14.307Z,10.51
2022-11-03T02:45:17.312Z,10.47
2022-11-03T02:46:14.283Z,10.46
2022-11-03T02:47:14.295Z,10.46
2022-11-03T02:48:14.260Z,10.44
2022-11-03T02:49:14.262Z,10.43
2022-11-03T02:50:14.239Z,10.44
2022-11-03T02:51:14.226Z,10.43
2022-11-03T02:52:14.239Z,10.44
2022-11-03T02:53:14.207Z,10.43
2022-11-03T02:54:14.207Z,10.43
2022-11-03T02:55:14.179Z,10.44
2022-11-03T02:56:14.168Z,10.44
2022-11-03T02:57:14.159Z,10.44
2022-11-03T02:58:14.176Z,10.44
2022-11-03T02:59:14.143Z,10.46
2022-11-03T03:00:14.135Z,10.47
2022-11-03T03:01:14.239Z,10.51
2022-11-03T03:02:14.188Z,10.47
2022-11-03T03:03:14.098Z,10.47
2022-11-03T03:04:14.106Z,10.47
2022-11-03T03:05:14.083Z,10.47
2022-11-03T03:06:14.057Z,10.51
2022-11-03T03:07:14.066Z,10.52
2022-11-03T03:08:14.056Z,10.51
2022-11-03T03:09:14.036Z,10.52
2022-11-03T03:10:14.020Z,10.47
2022-11-03T03:11:14.020Z,10.51
2022-11-03T03:12:13.997Z,10.47
2022-11-03T03:13:14.015Z,10.47
2022-11-03T03:14:13.982Z,10.47
2022-11-03T03:15:13.979Z,10.47
2022-11-03T03:16:13.960Z,10.47
2022-11-03T03:17:13.949Z,10.51
2022-11-03T03:18:13.950Z,10.53
2022-11-03T03:19:13.918Z,10.53
2022-11-03T03:20:13.909Z,10.53
2022-11-03T03:21:13.890Z,10.53
2022-11-03T03:22:13.879Z,10.53
2022-11-03T03:23:14.429Z,10.52
2022-11-03T03:24:13.859Z,10.52
2022-11-03T03:25:13.849Z,10.52
2022-11-03T03:26:13.848Z,10.47
2022-11-03T03:27:13.838Z,10.52
2022-11-03T03:28:13.834Z,10.51
2022-11-03T03:29:13.836Z,10.51
2022-11-03T03:30:13.799Z,10.52
2022-11-03T03:31:13.789Z,10.53
2022-11-03T03:32:13.781Z,10.52
2022-11-03T03:33:13.838Z,10.52
2022-11-03T03:34:33.918Z,10.55
2022-11-03T03:35:14.755Z,10.56
2022-11-03T03:36:13.727Z,10.58
2022-11-03T03:37:13.729Z,10.59
2022-11-03T03:38:13.710Z,10.56
2022-11-03T03:39:13.697Z,10.56
2022-11-03T03:40:13.708Z,10.55
2022-11-03T03:41:13.680Z,10.53
2022-11-03T03:42:13.659Z,10.53
2022-11-03T03:43:13.658Z,10.53
2022-11-03T03:44:13.670Z,10.55
2022-11-03T03:45:13.630Z,10.55
2022-11-03T03:46:13.624Z,10.55
2022-11-03T03:47:13.612Z,10.56
2022-11-03T03:48:13.602Z,10.56
2022-11-03T03:49:13.613Z,10.58
2022-11-03T03:50:13.573Z,10.59
2022-11-03T03:51:13.579Z,10.60
2022-11-03T03:52:13.561Z,10.60
2022-11-03T03:53:13.542Z,10.62
2022-11-03T03:54:13.522Z,10.65
2022-11-03T03:55:13.574Z,10.65
2022-11-03T03:56:13.506Z,10.70
2022-11-03T03:57:13.491Z,10.68
2022-11-03T03:58:13.485Z,10.68
2022-11-03T03:59:13.481Z,10.70
2022-11-03T04:00:13.495Z,10.70
2022-11-03T04:01:13.532Z,10.68
2022-11-03T04:02:13.590Z,10.71
2022-11-03T04:03:13.432Z,10.71
2022-11-03T04:04:13.411Z,10.73
2022-11-03T04:05:13.431Z,10.74
2022-11-03T04:06:13.404Z,10.73
2022-11-03T04:07:13.382Z,10.73
2022-11-03T04:08:13.374Z,10.73
2022-11-03T04:09:13.364Z,10.73
2022-11-03T04:10:13.364Z,10.71
2022-11-03T04:11:13.366Z,10.74
2022-11-03T04:12:13.325Z,10.76
2022-11-03T04:13:13.325Z,10.76
2022-11-03T04:14:13.302Z,10.77
2022-11-03T04:15:13.295Z,10.78
2022-11-03T04:16:13.302Z,10.78
2022-11-03T04:17:13.293Z,10.78
2022-11-03T04:18:13.262Z,10.78
2022-11-03T04:19:13.254Z,10.80
2022-11-03T04:20:13.237Z,10.81
2022-11-03T04:21:13.224Z,10.80
2022-11-03T04:22:13.235Z,10.80
2022-11-03T04:23:13.204Z,10.78
2022-11-03T04:24:13.194Z,10.77
2022-11-03T04:25:13.185Z,10.78
2022-11-03T04:26:13.166Z,10.78
2022-11-03T04:27:27.506Z,10.81
2022-11-03T04:28:13.145Z,10.80
2022-11-03T04:29:13.142Z,10.80
2022-11-03T04:30:13.138Z,10.81
2022-11-03T04:31:13.123Z,10.80
2022-11-03T04:32:13.129Z,10.78
2022-11-03T04:33:13.122Z,10.78
2022-11-03T04:34:13.077Z,10.80
2022-11-03T04:35:13.092Z,10.78
2022-11-03T04:36:13.054Z,10.78
2022-11-03T04:37:13.052Z,10.76
2022-11-03T04:38:13.064Z,10.74
2022-11-03T04:39:13.038Z,10.73
2022-11-03T04:40:13.021Z,10.73
2022-11-03T04:41:13.009Z,10.73
2022-11-03T04:42:12.998Z,10.71
2022-11-03T04:43:13.234Z,10.71
2022-11-03T04:44:12.967Z,10.73
2022-11-03T04:45:12.966Z,10.73
2022-11-03T04:46:12.946Z,10.74
2022-11-03T04:47:12.935Z,10.74
2022-11-03T04:48:12.937Z,10.73
2022-11-03T04:49:12.917Z,10.73
2022-11-03T04:50:12.896Z,10.74
2022-11-03T04:51:12.888Z,10.71
2022-11-03T04:52:12.886Z,10.71
2022-11-03T04:53:12.899Z,10.71
2022-11-03T04:54:12.855Z,10.70
2022-11-03T04:55:12.846Z,10.68
2022-11-03T04:56:12.829Z,10.66
2022-11-03T04:57:12.824Z,10.66
2022-11-03T04:58:12.808Z,10.65
2022-11-03T04:59:12.857Z,10.63
2022-11-03T05:00:12.788Z,10.63
2022-11-03T05:01:12.881Z,10.62
2022-11-03T05:02:12.798Z,10.60
2022-11-03T05:03:12.968Z,10.60
2022-11-03T05:04:12.738Z,10.56
2022-11-03T05:05:12.790Z,10.58
2022-11-03T05:06:12.718Z,10.59
2022-11-03T05:07:12.738Z,10.58
2022-11-03T05:08:12.700Z,10.58
2022-11-03T05:09:12.697Z,10.55
2022-11-03T05:10:12.678Z,10.56
2022-11-03T05:11:12.689Z,10.56
2022-11-03T05:12:12.650Z,10.55
2022-11-03T05:13:12.699Z,10.53
2022-11-03T05:14:12.639Z,10.55
2022-11-03T05:15:12.639Z,10.56
2022-11-03T05:16:12.631Z,10.55
2022-11-03T05:17:12.621Z,10.56
2022-11-03T05:18:12.617Z,10.58
2022-11-03T05:19:12.584Z,10.58
2022-11-03T05:20:12.568Z,10.59
2022-11-03T05:21:12.561Z,10.59
2022-11-03T05:22:12.560Z,10.58
2022-11-03T05:23:12.551Z,10.59
2022-11-03T05:24:12.639Z,10.60
2022-11-03T05:25:12.521Z,10.62
2022-11-03T05:26:12.501Z,10.62
2022-11-03T05:27:12.491Z,10.63
2022-11-03T05:28:12.480Z,10.63
2022-11-03T05:29:12.490Z,10.66
2022-11-03T05:30:12.451Z,10.65
2022-11-03T05:31:12.475Z,10.65
2022-11-03T05:32:12.438Z,10.65
2022-11-03T05:33:12.422Z,10.63
2022-11-03T05:34:12.441Z,10.63
2022-11-03T05:35:12.400Z,10.63
2022-11-03T05:36:12.391Z,10.63
2022-11-03T05:37:12.379Z,10.63
2022-11-03T05:38:12.378Z,10.62
2022-11-03T05:39:12.357Z,10.62
2022-11-03T05:40:12.371Z,10.59
2022-11-03T05:41:12.351Z,10.60
2022-11-03T05:42:12.321Z,10.58
2022-11-03T05:43:12.420Z,10.58
2022-11-03T05:44:12.302Z,10.60
2022-11-03T05:45:12.319Z,10.60
2022-11-03T05:46:12.284Z,10.62
2022-11-03T05:47:12.274Z,10.65
2022-11-03T05:48:12.255Z,10.66
2022-11-03T05:49:12.244Z,10.65
2022-11-03T05:50:12.260Z,10.66
2022-11-03T05:51:12.221Z,10.70
2022-11-03T05:52:12.215Z,10.68
2022-11-03T05:53:12.212Z,10.70
2022-11-03T05:54:16.903Z,10.68
2022-11-03T05:55:13.204Z,10.66
2022-11-03T05:56:12.172Z,10.66
2022-11-03T05:57:12.154Z,10.71
2022-11-03T05:58:12.164Z,10.80
2022-11-03T05:59:12.133Z,10.84
2022-11-03T06:00:12.164Z,10.84
2022-11-03T06:01:12.165Z,10.91
2022-11-03T06:02:12.213Z,10.95
2022-11-03T06:03:12.093Z,10.98
2022-11-03T06:04:12.083Z,11.02
2022-11-03T06:05:12.093Z,11.03
2022-11-03T06:06:12.062Z,11.02
2022-11-03T06:07:12.054Z,11.01
2022-11-03T06:08:12.125Z,10.99
2022-11-03T06:09:12.025Z,10.99
2022-11-03T06:10:12.014Z,10.96
2022-11-03T06:11:12.024Z,10.98
2022-11-03T06:12:12.004Z,10.96
2022-11-03T06:13:11.986Z,10.95
2022-11-03T06:14:11.974Z,10.94
2022-11-03T06:15:11.963Z,10.94
2022-11-03T06:16:11.971Z,10.92
2022-11-03T06:17:11.935Z,10.94
2022-11-03T06:18:11.928Z,10.92
2022-11-03T06:19:11.917Z,10.94
2022-11-03T06:20:11.904Z,10.92
2022-11-03T06:21:11.886Z,10.94
2022-11-03T06:22:11.904Z,10.95
2022-11-03T06:23:11.880Z,10.95
2022-11-03T06:24:11.874Z,10.94
2022-11-03T06:25:11.853Z,10.94
2022-11-03T06:26:11.836Z,10.94
2022-11-03T06:27:11.852Z,10.94
2022-11-03T06:28:11.817Z,10.95
2022-11-03T06:29:11.807Z,10.96
2022-11-03T06:30:11.796Z,10.98
2022-11-03T06:31:11.780Z,10.99
2022-11-03T06:32:11.793Z,11.01
2022-11-03T06:33:11.785Z,10.99
2022-11-03T06:34:11.746Z,11.01
2022-11-03T06:35:11.747Z,11.01
2022-11-03T06:36:11.726Z,11.01
2022-11-03T06:37:13.460Z,11.01
2022-11-03T06:38:11.728Z,11.03
2022-11-03T06:39:11.686Z,11.03
2022-11-03T06:40:11.686Z,11.07
2022-11-03T06:41:11.663Z,11.07
2022-11-03T06:42:11.677Z,11.07
2022-11-03T06:43:11.645Z,11.07
2022-11-03T06:44:11.636Z,11.07
2022-11-03T06:45:11.617Z,11.09
2022-11-03T06:46:11.616Z,11.11
2022-11-03T06:47:11.607Z,11.11
2022-11-03T06:48:11.610Z,11.13
2022-11-03T06:49:11.577Z,11.11
2022-11-03T06:50:11.566Z,11.13
2022-11-03T06:51:11.557Z,11.13
2022-11-03T06:52:11.541Z,11.13
2022-11-03T06:53:11.547Z,11.14
2022-11-03T06:54:11.525Z,11.14
2022-11-03T06:55:13.981Z,11.19
2022-11-03T06:56:12.501Z,11.19
2022-11-03T06:57:11.479Z,11.21
2022-11-03T06:58:11.500Z,11.21
2022-11-03T06:59:11.468Z,11.24
2022-11-03T07:00:32.873Z,11.25
2022-11-03T07:01:12.590Z,11.28
2022-11-03T07:02:11.492Z,11.28
2022-11-03T07:03:11.444Z,11.29
2022-11-03T07:04:11.421Z,11.29
2022-11-03T07:05:11.400Z,11.31
2022-11-03T07:06:11.386Z,11.32
2022-11-03T07:07:11.369Z,11.34
2022-11-03T07:08:11.399Z,11.36
2022-11-03T07:09:11.349Z,11.39
2022-11-03T07:10:11.340Z,11.43
2022-11-03T07:11:11.328Z,11.47
2022-11-03T07:12:11.317Z,11.47
2022-11-03T07:13:11.667Z,11.50
2022-11-03T07:14:11.319Z,11.52
2022-11-03T07:15:11.290Z,11.54
2022-11-03T07:16:13.496Z,11.57
2022-11-03T07:17:12.263Z,11.56
2022-11-03T07:18:11.279Z,11.57
2022-11-03T07:19:11.232Z,11.61
2022-11-03T07:20:11.229Z,11.64
2022-11-03T07:21:11.213Z,11.65
2022-11-03T07:22:11.201Z,11.67
2022-11-03T07:23:11.202Z,11.68
2022-11-03T07:24:11.210Z,11.70
2022-11-03T07:25:11.170Z,11.72
2022-11-03T07:26:11.169Z,11.74
2022-11-03T07:27:11.150Z,11.75
2022-11-03T07:28:11.150Z,11.78
2022-11-03T07:29:11.144Z,11.80
2022-11-03T07:30:11.121Z,11.83
2022-11-03T07:31:15.995Z,11.82
2022-11-03T07:32:12.094Z,11.87
2022-11-03T07:33:11.083Z,11.89
2022-11-03T07:34:11.091Z,11.90
2022-11-03T07:35:11.054Z,11.96
2022-11-03T07:36:15.965Z,11.97
2022-11-03T07:38:11.032Z,12.01
2022-11-03T07:39:11.040Z,12.05
2022-11-03T07:40:11.013Z,12.04
2022-11-03T07:41:10.993Z,12.09
2022-11-03T07:42:10.982Z,12.12
2022-11-03T07:43:10.972Z,12.13
2022-11-03T07:44:10.983Z,12.16
2022-11-03T07:45:10.944Z,12.21
2022-11-03T07:46:10.943Z,12.21
2022-11-03T07:47:10.924Z,12.24
2022-11-03T07:48:11.128Z,12.29
2022-11-03T07:49:10.924Z,12.29
2022-11-03T07:50:10.896Z,12.33
2022-11-03T07:51:10.873Z,12.34
2022-11-03T07:52:10.877Z,12.39
2022-11-03T07:53:10.853Z,12.42
2022-11-03T07:54:10.873Z,12.42
2022-11-03T07:55:10.835Z,12.46
2022-11-03T07:56:10.891Z,12.49
2022-11-03T07:57:10.816Z,12.51
2022-11-03T07:58:10.807Z,12.51
2022-11-03T07:59:10.899Z,12.54
2022-11-03T08:00:11.004Z,12.57
2022-11-03T08:01:10.862Z,12.60
2022-11-03T08:02:10.881Z,12.66
2022-11-03T08:03:10.745Z,12.70
2022-11-03T08:04:10.748Z,12.75
2022-11-03T08:05:10.795Z,12.75
2022-11-03T08:06:11.773Z,12.78
2022-11-03T08:07:10.727Z,12.81
2022-11-03T08:08:10.699Z,12.85
2022-11-03T08:09:10.688Z,12.84
2022-11-03T08:10:10.703Z,12.89
2022-11-03T08:11:10.725Z,12.93
2022-11-03T08:12:10.660Z,12.95
2022-11-03T08:13:10.646Z,12.97
2022-11-03T08:14:10.636Z,12.99
2022-11-03T08:15:10.626Z,13.02
2022-11-03T08:16:10.628Z,13.03
2022-11-03T08:17:10.596Z,13.04
2022-11-03T08:18:10.597Z,13.07
2022-11-03T08:19:10.576Z,13.07
2022-11-03T08:20:10.588Z,13.09
2022-11-03T08:21:10.566Z,13.12
2022-11-03T08:22:10.547Z,13.14
2022-11-03T08:23:25.330Z,13.17
2022-11-03T08:24:11.519Z,13.15
2022-11-03T08:25:10.537Z,13.17
2022-11-03T08:26:10.513Z,13.20
2022-11-03T08:27:10.497Z,13.18
2022-11-03T08:28:10.485Z,13.20
2022-11-03T08:29:10.467Z,13.20
2022-11-03T08:30:10.480Z,13.22
2022-11-03T08:31:12.827Z,13.24
2022-11-03T08:32:10.439Z,13.27
2022-11-03T08:33:10.431Z,13.30
2022-11-03T08:34:10.414Z,13.33
2022-11-03T08:35:10.409Z,13.38
2022-11-03T08:36:10.413Z,13.40
2022-11-03T08:37:10.380Z,13.47
2022-11-03T08:38:10.504Z,13.51
2022-11-03T08:39:10.361Z,13.54
2022-11-03T08:40:10.370Z,13.55
2022-11-03T08:41:10.359Z,13.63
2022-11-03T08:42:10.331Z,13.65
2022-11-03T08:43:10.320Z,13.70
2022-11-03T08:44:10.303Z,13.77
2022-11-03T08:45:10.292Z,13.81
2022-11-03T08:46:17.174Z,13.87
2022-11-03T08:47:11.299Z,13.88
2022-11-03T08:48:10.292Z,13.91
2022-11-03T08:49:10.246Z,13.92
2022-11-03T08:50:10.243Z,13.95
2022-11-03T08:51:10.261Z,13.95
2022-11-03T08:52:10.241Z,13.91
2022-11-03T08:53:10.201Z,13.94
2022-11-03T08:54:10.200Z,13.94
2022-11-03T08:55:10.196Z,13.95
2022-11-03T08:56:12.575Z,13.95
2022-11-03T08:57:10.193Z,13.94
2022-11-03T08:58:10.361Z,13.99
2022-11-03T08:59:10.150Z,13.99
2022-11-03T09:00:10.133Z,14.01
2022-11-03T09:01:10.125Z,14.04
2022-11-03T09:02:10.132Z,14.02
2022-11-03T09:03:10.178Z,14.02
2022-11-03T09:04:10.136Z,14.04
2022-11-03T09:05:10.076Z,14.02
2022-11-03T09:06:10.066Z,14.07
2022-11-03T09:07:10.079Z,14.12
2022-11-03T09:11:11.044Z,14.19
2022-11-03T09:12:10.009Z,14.21
2022-11-03T09:13:10.116Z,14.25
2022-11-03T09:14:09.985Z,14.27
2022-11-03T09:15:09.964Z,14.28
2022-11-03T09:16:09.977Z,14.34
2022-11-03T09:17:09.947Z,14.31
2022-11-03T09:18:10.080Z,14.29
2022-11-03T09:19:09.922Z,14.29
2022-11-03T09:20:09.912Z,14.34
2022-11-03T09:21:09.895Z,14.34
2022-11-03T09:22:09.917Z,14.37
2022-11-03T09:23:09.877Z,14.42
2022-11-03T09:24:09.876Z,14.43
2022-11-03T09:25:09.859Z,14.44
2022-11-03T09:26:09.856Z,14.47
2022-11-03T09:27:09.878Z,14.47
2022-11-03T09:28:10.202Z,14.49
2022-11-03T09:29:09.817Z,14.52
2022-11-03T09:30:14.087Z,14.56
2022-11-03T09:31:09.796Z,14.60
2022-11-03T09:32:09.808Z,14.62
2022-11-03T09:33:09.778Z,14.61
2022-11-03T09:34:09.760Z,14.61
2022-11-03T09:35:09.754Z,14.62
2022-11-03T09:36:09.739Z,14.62
2022-11-03T09:37:09.768Z,14.64
2022-11-03T09:38:09.944Z,14.65
2022-11-03T09:39:09.707Z,14.68
2022-11-03T09:40:09.698Z,14.65
2022-11-03T09:41:19.411Z,14.65
2022-11-03T09:42:10.703Z,14.64
2022-11-03T09:43:10.177Z,14.61
2022-11-03T09:44:09.676Z,14.62
2022-11-03T09:45:09.653Z,14.56
2022-11-03T09:46:09.638Z,14.57
2022-11-03T09:47:09.618Z,14.61
2022-11-03T09:48:09.939Z,14.64
2022-11-03T09:49:09.620Z,14.64
2022-11-03T09:50:09.587Z,14.68
2022-11-03T09:51:09.571Z,14.71
2022-11-03T09:52:09.560Z,14.74
2022-11-03T09:53:09.767Z,14.75
2022-11-03T09:54:09.541Z,14.81
2022-11-03T09:55:09.538Z,14.86
2022-11-03T09:56:09.520Z,14.88
2022-11-03T09:57:09.517Z,14.98
2022-11-03T09:58:09.648Z,15.03
2022-11-03T09:59:09.494Z,15.06
2022-11-03T10:00:09.472Z,15.08
2022-11-03T10:01:09.623Z,15.06
2022-11-03T10:02:09.547Z,15.09
2022-11-03T10:03:09.778Z,15.11
2022-11-03T10:04:09.455Z,15.12
2022-11-03T10:05:11.137Z,15.17
2022-11-03T10:06:12.471Z,15.21
2022-11-03T10:07:10.403Z,15.20
2022-11-03T10:08:09.384Z,15.20
2022-11-03T10:09:09.401Z,15.26
2022-11-03T10:10:09.364Z,15.35
2022-11-03T10:11:09.353Z,15.39
2022-11-03T10:12:09.344Z,15.49
2022-11-03T10:13:09.803Z,15.56
2022-11-03T10:14:09.346Z,15.60
2022-11-03T10:15:09.317Z,15.64
2022-11-03T10:16:09.310Z,15.68
2022-11-03T10:17:09.287Z,15.72
2022-11-03T10:18:09.284Z,15.74
2022-11-03T10:19:09.276Z,15.68
2022-11-03T10:20:09.274Z,15.68
2022-11-03T10:21:09.245Z,15.75
2022-11-03T10:22:09.227Z,15.84
2022-11-03T10:23:09.494Z,15.85
2022-11-03T10:24:09.217Z,15.88
2022-11-03T10:25:09.229Z,15.92
2022-11-03T10:26:09.188Z,15.99
2022-11-03T10:27:09.188Z,16.03
2022-11-03T10:28:14.011Z,15.97
2022-11-03T10:29:10.233Z,15.93
2022-11-03T10:30:09.168Z,15.96
2022-11-03T10:31:13.472Z,15.99
2022-11-03T10:32:09.127Z,15.96
2022-11-03T10:33:09.407Z,15.94
2022-11-03T10:34:09.105Z,15.85
2022-11-03T10:35:09.119Z,15.82
2022-11-03T10:36:09.080Z,15.88
2022-11-03T10:37:09.079Z,15.94
2022-11-03T10:38:09.057Z,16.00
2022-11-03T10:39:09.052Z,16.07
2022-11-03T10:40:13.269Z,16.09
2022-11-03T10:41:10.028Z,16.15
2022-11-03T10:42:09.009Z,16.26
2022-11-03T10:43:09.193Z,16.37
2022-11-03T10:44:08.988Z,16.52
2022-11-03T10:45:09.009Z,16.68
2022-11-03T10:46:23.447Z,16.90
2022-11-03T10:47:09.961Z,17.20
2022-11-03T10:48:08.951Z,17.50
2022-11-03T10:49:08.952Z,17.71
2022-11-03T10:50:08.971Z,17.89
2022-11-03T10:51:08.921Z,18.21
2022-11-03T10:52:08.922Z,18.42
2022-11-03T10:53:09.306Z,18.57
2022-11-03T10:54:08.884Z,18.61
2022-11-03T10:55:08.872Z,18.70
2022-11-03T10:56:08.863Z,18.82
2022-11-03T10:57:08.873Z,18.87
2022-11-03T10:58:09.020Z,18.76
2022-11-03T10:59:08.835Z,18.72
2022-11-03T11:00:08.824Z,18.70
2022-11-03T11:01:08.891Z,18.54
2022-11-03T11:02:08.975Z,18.39
2022-11-03T11:03:09.197Z,18.00
2022-11-03T11:04:08.822Z,17.81
2022-11-03T11:05:08.767Z,17.64
2022-11-03T11:06:08.745Z,17.48
2022-11-03T11:07:08.743Z,17.32
2022-11-03T11:08:08.772Z,17.25
2022-11-03T11:09:08.714Z,17.07
2022-11-03T11:10:08.719Z,16.95
2022-11-03T11:11:08.695Z,16.83
2022-11-03T11:12:08.685Z,16.67
2022-11-03T11:13:08.943Z,16.53
2022-11-03T11:14:08.666Z,16.44
2022-11-03T11:15:08.659Z,16.34
2022-11-03T11:16:08.645Z,16.27
2022-11-03T11:17:08.638Z,16.23
2022-11-03T11:18:08.680Z,16.22
2022-11-03T11:19:08.632Z,16.20
2022-11-03T11:20:08.597Z,16.16
2022-11-03T11:21:08.596Z,16.12
2022-11-03T11:22:08.577Z,16.11
2022-11-03T11:23:09.066Z,16.09
2022-11-03T11:24:08.556Z,16.07
2022-11-03T11:25:08.548Z,16.01
2022-11-03T11:26:08.532Z,15.97
2022-11-03T11:27:08.526Z,15.97
2022-11-03T11:28:08.528Z,15.94
2022-11-03T11:29:08.511Z,15.93
2022-11-03T11:30:08.489Z,15.92
2022-11-03T11:31:08.477Z,15.84
2022-11-03T11:32:08.461Z,15.84
2022-11-03T11:33:08.807Z,15.84
2022-11-03T11:34:08.448Z,15.84
2022-11-03T11:35:08.432Z,15.84
2022-11-03T11:36:08.423Z,15.85
2022-11-03T11:37:08.409Z,15.89
2022-11-03T11:38:08.411Z,15.93
2022-11-03T11:39:08.411Z,15.96
2022-11-03T11:40:08.380Z,15.94
2022-11-03T11:41:08.370Z,15.96
2022-11-03T11:42:08.426Z,16.00
2022-11-03T11:43:08.549Z,15.97
2022-11-03T11:44:08.359Z,15.94
2022-11-03T11:45:08.321Z,15.93
2022-11-03T11:46:08.314Z,15.94
2022-11-03T11:47:08.301Z,15.94
2022-11-03T11:48:08.303Z,15.92
2022-11-03T11:49:08.390Z,15.89
2022-11-03T11:50:08.301Z,15.84
2022-11-03T11:51:08.546Z,15.82
2022-11-03T11:52:08.537Z,15.82
2022-11-03T11:53:09.286Z,15.79
2022-11-03T11:54:17.556Z,15.75
2022-11-03T11:55:09.862Z,15.72
2022-11-03T11:56:08.838Z,15.72
2022-11-03T11:57:08.431Z,15.70
2022-11-03T11:58:08.248Z,15.74
2022-11-03T11:59:08.235Z,15.72
2022-11-03T12:00:08.176Z,15.74
2022-11-03T12:01:08.178Z,15.70
2022-11-03T12:02:08.136Z,15.68
2022-11-03T12:03:08.395Z,15.70
2022-11-03T12:04:08.229Z,15.67
2022-11-03T12:05:08.107Z,15.66
2022-11-03T12:06:08.188Z,15.60
2022-11-03T12:07:08.086Z,15.57
2022-11-03T12:08:08.442Z,15.57
2022-11-03T12:09:08.059Z,15.54
2022-11-03T12:10:08.048Z,15.52
2022-11-03T12:11:08.109Z,15.52
2022-11-03T12:12:08.924Z,15.54
2022-11-03T12:13:08.020Z,15.52
2022-11-03T12:14:08.047Z,15.54
2022-11-03T12:15:08.075Z,15.56
2022-11-03T12:16:08.140Z,15.59
2022-11-03T12:17:07.987Z,15.64
2022-11-03T12:18:08.481Z,15.68
2022-11-03T12:19:08.053Z,15.75
2022-11-03T12:20:07.956Z,15.84
2022-11-03T12:21:08.006Z,15.86
2022-11-03T12:22:07.947Z,16.00
2022-11-03T12:23:07.919Z,16.22
2022-11-03T12:24:07.889Z,16.42
2022-11-03T12:25:07.900Z,16.67
2022-11-03T12:26:07.917Z,16.90
2022-11-03T12:27:07.898Z,17.10
2022-11-03T12:28:08.107Z,17.40
2022-11-03T12:29:07.849Z,17.50
2022-11-03T12:30:07.830Z,17.67
2022-11-03T12:31:07.829Z,17.97
2022-11-03T12:32:19.946Z,18.25
2022-11-03T12:33:09.193Z,18.55
2022-11-03T12:34:07.791Z,18.77
2022-11-03T12:35:07.805Z,19.17
2022-11-03T12:36:07.834Z,19.24
2022-11-03T12:37:07.782Z,19.24
2022-11-03T12:38:07.771Z,19.39
2022-11-03T12:39:07.784Z,20.13
2022-11-03T12:40:07.715Z,20.58
2022-11-03T12:41:07.752Z,21.23
2022-11-03T12:42:07.694Z,21.95
2022-11-03T12:43:08.050Z,22.34
2022-11-03T12:44:07.753Z,22.78
2022-11-03T12:45:07.674Z,23.23
2022-11-03T12:46:07.697Z,23.09
2022-11-03T12:47:07.674Z,22.39
2022-11-03T12:48:07.648Z,21.29
2022-11-03T12:49:07.654Z,20.25
2022-11-03T12:50:07.634Z,19.42
2022-11-03T12:51:07.628Z,19.01
2022-11-03T12:52:08.281Z,18.43
2022-11-03T12:53:07.939Z,18.02
2022-11-03T12:54:07.564Z,17.79
2022-11-03T12:55:07.555Z,17.66
2022-11-03T12:56:07.606Z,17.51